Time;durP1;ratioP1;P1;durP2;ratioP2;P2;SDS_P1;SDS_P2;PMS_P1;PMS_P2;Temp;Humidity;BMP_temperature;BMP_pressure;BME280_temperature;BME280_humidity;BME280_pressure;Samples;Min_cycle;Max_cycle;Signal;HPM_P1;HPM_P2
2022/05/31 00:00:58;;;;;;;5.15;2.63;;;11.30;1.00;;;;;;7366389;19;20014;-62
2022/05/31 00:03:28;;;;;;;2.67;2.05;;;11.30;1.00;;;;;;7357447;19;20032;-62
2022/05/31 00:05:58;;;;;;;3.45;2.60;;;11.30;1.00;;;;;;7387472;19;20006;-62
2022/05/31 00:08:28;;;;;;;2.40;2.20;;;11.20;1.00;;;;;;7364237;19;20125;-62
2022/05/31 00:11:02;;;;;;;8.70;2.85;;;11.10;1.00;;;;;;7365965;19;20465;-62
2022/05/31 00:13:32;;;;;;;8.02;2.78;;;11.10;1.00;;;;;;7357399;19;20013;-61
2022/05/31 00:16:02;;;;;;;3.47;2.40;;;11.10;1.00;;;;;;7363737;19;20010;-61
2022/05/31 00:18:32;;;;;;;3.47;2.35;;;10.90;1.00;;;;;;7366756;19;20015;-62
2022/05/31 00:21:02;;;;;;;6.65;2.45;;;10.80;1.00;;;;;;7387640;19;20019;-63
2022/05/31 00:23:32;;;;;;;3.40;2.30;;;10.70;1.00;;;;;;7356175;19;20006;-62
2022/05/31 00:26:05;;;;;;;4.95;2.38;;;10.70;1.00;;;;;;7363755;19;20014;-62
2022/05/31 00:28:35;;;;;;;3.88;2.60;;;10.70;1.00;;;;;;7365795;19;20006;-62
2022/05/31 00:31:07;;;;;;;3.70;2.60;;;10.70;1.00;;;;;;7366191;19;20486;-62
2022/05/31 00:33:37;;;;;;;3.80;2.30;;;10.70;1.00;;;;;;7356466;19;19999;-63
2022/05/31 00:36:09;;;;;;;3.85;2.70;;;10.60;1.00;;;;;;7386894;19;20010;-61
2022/05/31 00:38:41;;;;;;;2.65;2.10;;;10.60;1.00;;;;;;7365367;19;20015;-63
2022/05/31 00:41:28;;;;;;;6.30;2.72;;;10.60;1.00;;;;;;7365631;19;20010;-62
2022/05/31 00:44:05;;;;;;;5.13;2.83;;;10.60;1.00;;;;;;7356055;19;20006;-62
2022/05/31 00:46:44;;;;;;;3.35;2.50;;;10.50;1.00;;;;;;7364661;19;20503;-62
2022/05/31 00:49:28;;;;;;;3.63;2.50;;;10.60;1.00;;;;;;7365301;19;20032;-61
2022/05/31 00:52:05;;;;;;;5.82;3.55;;;10.40;1.00;;;;;;7361031;19;20006;-61
2022/05/31 00:54:39;;;;;;;3.72;2.42;;;10.40;1.00;;;;;;7359976;19;20085;-61
2022/05/31 00:57:13;;;;;;;3.88;2.40;;;10.40;1.00;;;;;;7385767;19;20015;-62
2022/05/31 00:59:48;;;;;;;7.47;2.58;;;10.40;1.00;;;;;;7364956;19;20011;-62
2022/05/31 01:02:19;;;;;;;3.88;2.42;;;10.30;1.00;;;;;;7362500;19;20007;-61
2022/05/31 01:04:53;;;;;;;4.18;2.78;;;10.20;1.00;;;;;;7358566;19;20376;-60
2022/05/31 01:07:24;;;;;;;5.97;2.60;;;10.20;1.00;;;;;;7363126;19;20354;-61
2022/05/31 01:09:54;;;;;;;4.95;2.58;;;10.10;1.00;;;;;;7364874;19;20384;-61
2022/05/31 01:12:28;;;;;;;4.25;2.60;;;10.20;1.00;;;;;;7360845;19;20011;-61
2022/05/31 01:14:59;;;;;;;3.28;2.80;;;10.10;1.00;;;;;;7383444;19;20014;-62
2022/05/31 01:17:29;;;;;;;5.40;2.75;;;10.00;1.00;;;;;;7363959;19;20021;-62
2022/05/31 01:19:59;;;;;;;4.78;2.92;;;10.00;1.00;;;;;;7364140;19;20573;-61
2022/05/31 01:22:39;;;;;;;3.17;2.30;;;10.00;1.00;;;;;;7357800;19;20764;-61
2022/05/31 01:25:31;;;;;;;3.47;2.58;;;9.90;1.00;;;;;;7358731;19;20003;-62
2022/05/31 01:28:13;;;;;;;4.25;2.45;;;10.00;1.00;;;;;;7361512;19;20450;-61
2022/05/31 01:30:46;;;;;;;4.63;2.53;;;10.00;1.00;;;;;;7362229;19;20074;-61
2022/05/31 01:33:24;;;;;;;4.18;2.30;;;10.00;1.00;;;;;;7375953;19;20015;-61
2022/05/31 01:35:55;;;;;;;4.25;2.70;;;10.00;1.00;;;;;;7360795;19;20010;-62
2022/05/31 01:38:34;;;;;;;5.10;3.17;;;10.00;1.00;;;;;;7363165;19;20021;-61
2022/05/31 01:41:16;;;;;;;6.13;3.05;;;10.00;1.00;;;;;;7368734;19;20013;-61
2022/05/31 01:43:47;;;;;;;3.80;2.58;;;10.00;1.00;;;;;;7360428;19;20101;-61
2022/05/31 01:46:22;;;;;;;4.88;2.70;;;10.00;1.00;;;;;;7368913;19;20014;-62
2022/05/31 01:48:54;;;;;;;4.22;2.72;;;9.90;1.00;;;;;;7369206;19;20039;-61
2022/05/31 01:51:25;;;;;;;3.83;2.53;;;9.90;1.00;;;;;;7368495;19;20342;-61
2022/05/31 01:54:00;;;;;;;3.92;2.40;;;9.80;1.00;;;;;;7383130;19;20018;-61
2022/05/31 01:56:31;;;;;;;5.75;2.70;;;9.60;1.00;;;;;;7369484;19;20093;-62
2022/05/31 01:59:03;;;;;;;4.85;3.15;;;9.60;1.00;;;;;;7369498;19;20014;-62
2022/05/31 02:01:34;;;;;;;4.90;3.00;;;9.70;1.00;;;;;;7369975;19;20082;-62
2022/05/31 02:04:05;;;;;;;4.10;3.10;;;9.70;1.00;;;;;;7360142;19;20466;-62
2022/05/31 02:06:38;;;;;;;6.53;3.00;;;9.60;1.00;;;;;;7369299;19;20092;-62
2022/05/31 02:09:12;;;;;;;4.10;3.00;;;9.70;1.00;;;;;;7392279;19;20011;-63
2022/05/31 02:11:43;;;;;;;9.40;4.30;;;9.80;1.00;;;;;;7371862;19;20469;-62
2022/05/31 02:14:12;;;;;;;7.47;3.50;;;9.80;1.00;;;;;;7363030;19;20002;-62
2022/05/31 02:16:42;;;;;;;5.03;4.05;;;9.80;1.00;;;;;;7368901;19;20461;-62
2022/05/31 02:19:23;;;;;;;5.93;3.05;;;9.70;1.00;;;;;;7369573;19;20366;-60
2022/05/31 02:21:54;;;;;;;7.20;3.17;;;9.60;1.00;;;;;;7367028;19;20010;-61
2022/05/31 02:24:28;;;;;;;5.57;3.20;;;9.60;1.00;;;;;;7364367;19;20339;-61
2022/05/31 02:26:58;;;;;;;6.10;3.30;;;9.60;1.00;;;;;;7388118;19;20101;-61
2022/05/31 02:29:31;;;;;;;7.50;3.50;;;9.60;1.00;;;;;;7367889;19;20472;-62
2022/05/31 02:32:02;;;;;;;6.05;3.10;;;9.70;1.00;;;;;;7366943;19;20369;-61
2022/05/31 02:34:35;;;;;;;6.07;3.63;;;9.70;1.00;;;;;;7365008;19;20473;-60
2022/05/31 02:37:06;;;;;;;5.50;3.10;;;9.70;1.00;;;;;;7368070;19;20105;-62
2022/05/31 02:39:39;;;;;;;5.07;2.85;;;9.60;1.00;;;;;;7371248;19;20006;-61
2022/05/31 02:42:10;;;;;;;4.80;3.30;;;9.60;1.00;;;;;;7388484;19;20491;-61
2022/05/31 02:44:40;;;;;;;4.75;3.40;;;9.50;1.00;;;;;;7363982;19;20013;-61
2022/05/31 02:47:11;;;;;;;6.05;2.97;;;9.50;1.00;;;;;;7368697;19;20082;-62
2022/05/31 02:49:42;;;;;;;3.88;3.17;;;9.50;1.00;;;;;;7369497;19;20099;-62
2022/05/31 02:52:12;;;;;;;3.88;3.25;;;9.50;1.00;;;;;;7366540;19;20017;-62
2022/05/31 02:54:45;;;;;;;18.25;7.70;;;9.60;1.00;;;;;;7364067;19;20010;-62
2022/05/31 02:57:14;;;;;;;15.73;6.03;;;9.50;1.00;;;;;;7388377;19;20096;-61
2022/05/31 02:59:44;;;;;;;7.38;4.50;;;9.50;1.00;;;;;;7369939;19;20481;-61
2022/05/31 03:02:15;;;;;;;10.73;5.80;;;9.50;1.00;;;;;;7365652;19;20497;-61
2022/05/31 03:04:44;;;;;;;11.90;6.28;;;9.50;1.00;;;;;;7363379;19;20010;-62
2022/05/31 03:07:14;;;;;;;11.15;6.20;;;9.50;1.00;;;;;;7368420;19;20031;-61
2022/05/31 03:09:47;;;;;;;11.07;5.72;;;9.40;1.00;;;;;;7368173;19;20014;-61
2022/05/31 03:12:19;;;;;;;8.13;4.90;;;9.30;1.00;;;;;;7388157;19;20040;-61
2022/05/31 03:14:54;;;;;;;11.68;4.72;;;9.20;1.00;;;;;;7365532;19;20018;-62
2022/05/31 03:17:30;;;;;;;9.68;5.13;;;9.20;1.00;;;;;;7368897;19;20118;-62
2022/05/31 03:20:04;;;;;;;13.15;5.03;;;9.20;1.00;;;;;;7368367;19;20006;-61
2022/05/31 03:22:37;;;;;;;;;;;9.20;1.00;;;;;;7363764;19;20027;-62
2022/05/31 03:25:14;;;;;;;10.55;4.65;;;9.20;1.00;;;;;;7365662;19;19962;-62
2022/05/31 03:27:44;;;;;;;17.60;5.35;;;9.20;1.00;;;;;;7368035;19;20852;-61
2022/05/31 03:30:14;;;;;;;6.90;4.55;;;9.30;1.00;;;;;;7389538;19;20108;-61
2022/05/31 03:32:45;;;;;;;8.48;4.32;;;9.30;1.00;;;;;;7362391;19;20006;-62
2022/05/31 03:35:16;;;;;;;8.15;4.70;;;9.30;1.00;;;;;;7366808;19;20006;-62
2022/05/31 03:37:46;;;;;;;7.65;4.40;;;9.40;1.00;;;;;;7369054;19;20395;-63
2022/05/31 03:43:02;;;;;;;9.90;4.55;;;9.60;1.00;;;;;;7357623;19;20011;-61
2022/05/31 03:45:36;;;;;;;10.63;4.78;;;9.90;1.00;;;;;;7368095;19;20090;-63
2022/05/31 03:48:07;;;;;;;13.15;4.22;;;9.70;1.00;;;;;;7391290;19;20033;-61
2022/05/31 03:50:38;;;;;;;8.77;4.30;;;10.40;1.00;;;;;;7366766;19;20477;-61
2022/05/31 03:53:08;;;;;;;6.40;4.30;;;11.10;1.00;;;;;;7357896;19;20019;-62
2022/05/31 03:55:45;;;;;;;7.00;3.67;;;11.60;1.00;;;;;;7365692;19;20011;-61
2022/05/31 03:58:14;;;;;;;6.25;3.53;;;12.00;1.00;;;;;;7368059;19;20010;-62
2022/05/31 04:00:46;;;;;;;7.07;3.85;;;12.30;1.00;;;;;;7366691;19;20557;-62
2022/05/31 04:03:16;;;;;;;4.78;3.10;;;12.80;1.00;;;;;;7380020;19;20466;-62
2022/05/31 04:05:46;;;;;;;4.22;3.10;;;13.40;1.00;;;;;;7366149;19;20011;-62
2022/05/31 04:08:15;;;;;;;5.65;3.25;;;13.50;1.00;;;;;;7367183;19;20082;-62
2022/05/31 04:10:49;;;;;;;3.50;2.60;;;13.60;1.00;;;;;;7367586;19;20006;-62
2022/05/31 04:13:20;;;;;;;5.53;3.28;;;13.90;1.00;;;;;;7358453;19;20027;-62
2022/05/31 04:15:50;;;;;;;3.90;3.10;;;14.30;1.00;;;;;;7366730;19;20088;-62
2022/05/31 04:18:20;;;;;;;3.78;3.25;;;13.60;1.00;;;;;;7372767;19;20466;-63
2022/05/31 04:20:50;;;;;;;5.03;3.65;;;13.80;1.00;;;;;;7389285;19;20377;-62
2022/05/31 04:26:08;;;;;;;4.60;3.17;;;11.40;1.00;;;;;;7365188;19;20015;-62
2022/05/31 04:28:38;;;;;;;4.72;3.20;;;11.70;1.00;;;;;;7367574;19;20070;-61
2022/05/31 04:31:14;;;;;;;5.82;3.00;;;12.30;1.00;;;;;;7367258;19;20017;-62
2022/05/31 04:33:44;;;;;;;5.95;3.05;;;11.50;1.00;;;;;;7357024;19;20469;-62
2022/05/31 04:36:16;;;;;;;4.50;3.20;;;11.50;1.00;;;;;;7387201;19;20007;-62
2022/05/31 04:38:46;;;;;;;5.85;3.33;;;10.80;1.00;;;;;;7367519;19;20029;-61
2022/05/31 04:41:24;;;;;;;7.05;4.35;;;10.80;1.00;;;;;;7365803;19;20010;-61
2022/05/31 04:43:54;;;;;;;7.13;3.40;;;10.80;1.00;;;;;;7357246;19;20649;-61
2022/05/31 04:46:27;;;;;;;4.10;3.40;;;12.60;1.00;;;;;;7366211;19;20011;-61
2022/05/31 04:49:00;;;;;;;4.07;2.92;;;14.20;1.00;;;;;;7365159;19;20032;-62
2022/05/31 04:51:34;;;;;;;5.28;3.22;;;14.80;1.00;;;;;;7365861;19;20035;-61
2022/05/31 04:54:04;;;;;;;4.97;2.92;;;15.50;1.00;;;;;;7377622;19;20099;-61
2022/05/31 04:56:37;;;;;;;6.20;3.22;;;12.40;1.00;;;;;;7363334;19;20007;-62
2022/05/31 04:59:07;;;;;;;4.63;2.85;;;13.60;1.00;;;;;;7365498;19;20014;-62
2022/05/31 05:01:39;;;;;;;6.85;2.97;;;15.50;1.00;;;;;;7366362;19;20011;-62
2022/05/31 05:04:08;;;;;;;4.15;2.80;;;15.90;1.00;;;;;;7355870;19;20086;-62
2022/05/31 05:06:39;;;;;;;4.53;2.80;;;17.40;1.00;;;;;;7364406;19;20019;-62
2022/05/31 05:09:09;;;;;;;3.13;2.80;;;17.20;1.00;;;;;;7387062;19;20427;-62
2022/05/31 05:11:41;;;;;;;6.30;3.10;;;17.00;1.00;;;;;;7364812;19;20375;-63
2022/05/31 05:14:11;;;;;;;4.20;2.80;;;16.50;1.00;;;;;;7363673;19;20589;-63
2022/05/31 05:16:41;;;;;;;4.20;2.85;;;16.50;1.00;;;;;;7371031;19;20021;-63
2022/05/31 05:19:16;;;;;;;5.90;2.40;;;17.80;1.00;;;;;;7371729;19;20019;-61
2022/05/31 05:21:46;;;;;;;5.55;2.42;;;18.70;1.00;;;;;;7371836;19;20007;-62
2022/05/31 05:24:16;;;;;;;4.20;2.42;;;18.20;1.00;;;;;;7386338;19;20508;-62
2022/05/31 05:26:48;;;;;;;3.60;2.72;;;18.90;1.00;;;;;;7369900;19;20007;-62
2022/05/31 05:32:01;;;;;;;17.45;10.32;;;19.40;1.00;;;;;;7368282;19;20366;-62
2022/05/31 05:34:30;;;;;;;2.88;2.58;;;18.70;1.00;;;;;;7363307;19;20007;-63
2022/05/31 05:37:00;;;;;;;3.90;2.80;;;19.20;1.00;;;;;;7369143;19;20013;-63
2022/05/31 05:39:30;;;;;;;4.68;2.72;;;19.00;1.00;;;;;;7371666;19;20007;-62
2022/05/31 05:42:10;;;;;;;6.93;2.80;;;18.50;1.00;;;;;;7391302;19;20014;-63
2022/05/31 05:44:40;;;;;;;4.55;2.88;;;17.30;1.00;;;;;;7363344;19;20450;-63
2022/05/31 05:47:14;;;;;;;3.42;2.47;;;17.50;1.00;;;;;;7369583;19;22476;-62
2022/05/31 05:49:44;;;;;;;4.32;2.67;;;16.20;1.00;;;;;;7369870;19;20006;-63
2022/05/31 05:52:17;;;;;;;6.60;3.20;;;15.90;1.00;;;;;;7367654;19;20070;-63
2022/05/31 05:54:49;;;;;;;3.10;2.50;;;15.80;1.00;;;;;;7364636;19;20108;-63
2022/05/31 05:57:22;;;;;;;4.78;2.60;;;16.90;1.00;;;;;;7379502;19;21539;-62
2022/05/31 05:59:51;;;;;;;9.07;3.05;;;16.60;1.00;;;;;;7392016;19;20039;-61
2022/05/31 06:02:29;;;;;;;4.25;2.60;;;19.10;1.00;;;;;;7367154;19;20006;-62
2022/05/31 06:05:23;;;;;;;3.47;2.88;;;18.50;1.00;;;;;;7370483;19;20087;-61
2022/05/31 06:07:58;;;;;;;5.78;2.83;;;16.50;1.00;;;;;;7371409;19;20014;-61
2022/05/31 06:10:32;;;;;;;3.45;2.40;;;16.60;1.00;;;;;;7369551;19;20010;-62
2022/05/31 06:13:11;;;;;;;3.35;2.67;;;16.00;1.00;;;;;;7361061;19;20007;-61
2022/05/31 06:15:45;;;;;;;4.50;2.97;;;16.10;1.00;;;;;;7370373;19;20022;-62
2022/05/31 06:18:19;;;;;;;4.18;3.08;;;16.40;1.00;;;;;;7392182;19;20007;-62
2022/05/31 06:20:52;;;;;;;5.15;2.88;;;16.00;1.00;;;;;;7369957;19;20035;-62
2022/05/31 06:23:23;;;;;;;7.32;2.85;;;16.00;1.00;;;;;;7360237;19;20017;-62
2022/05/31 06:25:53;;;;;;;4.80;2.95;;;16.50;1.00;;;;;;7368109;19;20430;-62
2022/05/31 06:28:26;;;;;;;4.60;3.05;;;16.90;1.00;;;;;;7370780;19;20014;-62
2022/05/31 06:30:55;;;;;;;4.28;2.55;;;16.50;1.00;;;;;;7368918;19;20010;-62
2022/05/31 06:33:25;;;;;;;4.68;2.60;;;16.30;1.00;;;;;;7360105;19;20025;-63
2022/05/31 06:35:55;;;;;;;3.97;2.72;;;15.70;1.00;;;;;;7390487;19;20015;-63
2022/05/31 06:38:26;;;;;;;4.30;2.90;;;16.60;1.00;;;;;;7369455;19;20011;-63
2022/05/31 06:41:04;;;;;;;4.63;2.50;;;16.20;1.00;;;;;;7369338;19;20025;-61
2022/05/31 06:43:37;;;;;;;5.60;2.65;;;16.60;1.00;;;;;;7358834;19;20010;-63
2022/05/31 06:46:08;;;;;;;3.60;2.35;;;16.00;1.00;;;;;;7367961;19;20027;-61
2022/05/31 06:48:38;;;;;;;2.95;2.50;;;15.90;1.00;;;;;;7369129;19;20083;-62
2022/05/31 06:51:10;;;;;;;4.70;2.40;;;16.30;1.00;;;;;;7389608;19;20002;-62
2022/05/31 06:59:08;;;;;;;4.18;2.50;;;16.10;1.00;;;;;;7368959;19;20078;-63
2022/05/31 07:01:39;;;;;;;6.25;3.00;;;16.00;1.00;;;;;;7368520;19;20025;-62
2022/05/31 07:04:09;;;;;;;6.05;2.80;;;16.40;1.00;;;;;;7358961;19;20017;-62
2022/05/31 07:06:39;;;;;;;4.25;2.42;;;16.70;1.00;;;;;;7367606;19;20494;-62
2022/05/31 07:09:09;;;;;;;7.03;2.72;;;16.80;1.00;;;;;;7391129;19;20469;-62
2022/05/31 07:11:39;;;;;;;4.63;2.17;;;17.00;1.00;;;;;;7365464;19;20565;-62
2022/05/31 07:14:11;;;;;;;6.68;2.40;;;16.80;1.00;;;;;;7359020;19;20010;-63
2022/05/31 07:16:41;;;;;;;4.15;2.50;;;16.50;1.00;;;;;;7367607;19;20012;-62
2022/05/31 07:19:11;;;;;;;6.53;2.28;;;16.30;1.00;;;;;;7369098;19;20039;-62
2022/05/31 07:21:41;;;;;;;3.55;2.33;;;16.60;1.00;;;;;;7368625;19;20102;-62
2022/05/31 07:24:11;;;;;;;3.63;2.15;;;17.20;1.00;;;;;;7380572;19;20010;-62
2022/05/31 07:26:41;;;;;;;5.40;3.97;;;17.00;1.00;;;;;;7366165;19;20074;-62
2022/05/31 07:29:13;;;;;;;5.55;2.85;;;17.20;1.00;;;;;;7367320;19;20006;-62
2022/05/31 07:31:44;;;;;;;6.03;2.95;;;17.00;1.00;;;;;;7368113;19;20017;-63
2022/05/31 07:34:34;;;;;;;4.07;2.30;;;17.10;1.00;;;;;;7361566;19;20107;-62
2022/05/31 07:37:04;;;;;;;3.88;2.10;;;18.00;1.00;;;;;;7364152;19;20013;-62
2022/05/31 07:39:34;;;;;;;7.80;2.40;;;18.40;1.00;;;;;;7366608;19;20180;-61
2022/05/31 07:42:04;;;;;;;3.97;2.25;;;18.50;1.00;;;;;;7386581;19;20010;-63
2022/05/31 07:44:37;;;;;;;5.70;2.13;;;18.40;1.00;;;;;;7360432;19;20038;-63
2022/05/31 07:47:06;;;;;;;2.53;2.03;;;19.00;1.00;;;;;;7366753;19;20074;-63
2022/05/31 07:49:36;;;;;;;7.28;2.28;;;19.20;1.00;;;;;;7368528;19;20013;-62
2022/05/31 07:52:09;;;;;;;5.53;2.10;;;19.20;1.00;;;;;;7364951;19;20034;-62
2022/05/31 07:54:40;;;;;;;4.50;2.28;;;19.00;1.00;;;;;;7359826;19;20121;-62
2022/05/31 07:58:30;;;;;;;3.28;1.98;;;19.10;1.00;;;;;;7380137;19;20078;-62
2022/05/31 08:00:02;;;;;;;6.10;2.28;;;19.10;1.00;;;;;;7363059;19;20478;-63
2022/05/31 08:02:32;;;;;;;2.53;1.80;;;19.20;1.00;;;;;;7361165;19;20015;-62
2022/05/31 08:05:02;;;;;;;5.03;2.00;;;18.80;1.00;;;;;;7362328;19;20031;-62
2022/05/31 08:07:32;;;;;;;2.97;1.90;;;19.10;1.00;;;;;;7366616;19;20022;-62
2022/05/31 08:10:02;;;;;;;6.10;2.17;;;19.40;1.00;;;;;;7365289;19;20019;-62
2022/05/31 08:12:32;;;;;;;6.22;2.20;;;19.50;1.00;;;;;;7360059;19;20078;-62
2022/05/31 08:15:05;;;;;;;3.20;2.35;;;19.20;1.00;;;;;;7383090;19;20014;-63
2022/05/31 08:17:34;;;;;;;4.50;2.58;;;19.20;1.00;;;;;;7366039;19;20090;-62
2022/05/31 08:20:06;;;;;;;3.85;2.40;;;18.90;1.00;;;;;;7364867;19;20019;-62
2022/05/31 08:22:36;;;;;;;3.85;2.20;;;19.50;1.00;;;;;;7360177;19;20435;-63
2022/05/31 08:25:07;;;;;;;6.45;2.65;;;19.70;1.00;;;;;;7361953;19;20018;-63
2022/05/31 08:27:37;;;;;;;5.28;2.38;;;19.50;1.00;;;;;;7365739;19;20014;-62
2022/05/31 08:30:11;;;;;;;4.55;2.30;;;20.10;1.00;;;;;;7386513;19;20010;-62
2022/05/31 08:32:41;;;;;;;5.82;2.50;;;19.80;1.00;;;;;;7358588;19;20629;-61
2022/05/31 08:35:11;;;;;;;5.88;2.65;;;20.10;1.00;;;;;;7359049;19;20012;-62
2022/05/31 08:37:41;;;;;;;4.88;2.55;;;20.10;1.00;;;;;;7364271;19;20060;-63
2022/05/31 08:40:13;;;;;;;3.95;2.60;;;20.20;1.00;;;;;;7365051;19;20094;-62
2022/05/31 08:42:53;;;;;;;4.65;2.60;;;19.60;1.00;;;;;;7359506;19;20044;-64
2022/05/31 08:45:34;;;;;;;2.75;2.15;;;19.80;1.00;;;;;;7364557;19;20466;-62
2022/05/31 08:48:11;;;;;;;3.17;2.50;;;20.20;1.00;;;;;;7386823;19;20019;-62
2022/05/31 08:53:42;;;;;;;5.20;2.50;;;21.40;1.00;;;;;;7353363;19;20070;-62
2022/05/31 08:59:05;;;;;;;4.10;1.98;;;21.20;1.00;;;;;;7364537;19;20101;-62
2022/05/31 09:01:46;;;;;;;5.55;2.80;;;21.00;1.00;;;;;;7365483;19;20014;-61
2022/05/31 09:04:20;;;;;;;5.45;2.53;;;20.40;1.00;;;;;;7357513;19;20003;-63
2022/05/31 09:06:54;;;;;;;3.88;2.55;;;20.00;1.00;;;;;;7363263;19;20010;-62
2022/05/31 09:09:27;;;;;;;3.17;2.20;;;20.20;1.00;;;;;;7364687;19;20755;-63
2022/05/31 09:12:03;;;;;;;4.28;2.53;;;19.90;1.00;;;;;;7383348;19;20092;-63
2022/05/31 09:14:46;;;;;;;4.38;2.30;;;19.60;1.00;;;;;;7356508;19;20014;-62
2022/05/31 09:17:26;;;;;;;6.25;2.65;;;20.40;1.00;;;;;;7364437;19;20050;-62
2022/05/31 09:20:04;;;;;;;4.47;2.15;;;20.70;1.00;;;;;;7365356;19;20553;-63
2022/05/31 09:22:35;;;;;;;6.38;2.55;;;21.10;1.00;;;;;;7359325;19;20014;-62
2022/05/31 09:25:05;;;;;;;3.40;2.13;;;20.50;1.00;;;;;;7360170;19;20013;-63
2022/05/31 09:27:45;;;;;;;5.43;2.33;;;20.50;1.00;;;;;;7364192;19;20000;-62
2022/05/31 09:30:20;;;;;;;4.13;2.10;;;21.00;1.00;;;;;;7385380;19;20287;-63
2022/05/31 09:33:06;;;;;;;3.50;2.17;;;21.50;1.00;;;;;;7355847;19;20017;-62
2022/05/31 09:35:48;;;;;;;4.63;2.63;;;20.10;1.00;;;;;;7359635;19;20021;-62
2022/05/31 09:38:44;;;;;;;5.00;2.20;;;20.80;1.00;;;;;;7364030;19;20006;-61
2022/05/31 09:41:21;;;;;;;5.80;2.10;;;21.50;1.00;;;;;;7363620;19;20078;-61
2022/05/31 09:44:08;;;;;;;5.25;2.00;;;21.40;1.00;;;;;;7355379;19;20480;-62
2022/05/31 09:46:41;;;;;;;4.70;2.17;;;20.50;1.00;;;;;;7363247;19;20019;-62
2022/05/31 09:49:36;;;;;;;4.72;2.00;;;21.20;1.00;;;;;;7364695;19;20062;-62
2022/05/31 09:52:10;;;;;;;3.30;1.92;;;21.20;1.00;;;;;;7360858;19;20043;-62
2022/05/31 09:57:54;;;;;;;3.67;2.20;;;20.80;1.00;;;;;;7362872;19;20086;-62
2022/05/31 10:00:25;;;;;;;4.38;2.20;;;21.00;1.00;;;;;;7368255;19;20018;-62
2022/05/31 10:03:07;;;;;;;6.35;1.95;;;21.00;1.00;;;;;;7385909;19;20084;-63
2022/05/31 10:05:41;;;;;;;2.05;1.73;;;21.00;1.00;;;;;;7365071;19;20129;-62
2022/05/31 10:08:17;;;;;;;5.57;1.92;;;21.10;1.00;;;;;;7370680;19;20102;-63
2022/05/31 10:10:50;;;;;;;4.93;2.20;;;21.80;1.00;;;;;;7369579;19;20096;-62
2022/05/31 10:13:37;;;;;;;5.82;2.33;;;21.60;1.00;;;;;;7363600;19;20060;-61
2022/05/31 10:16:21;;;;;;;5.25;1.85;;;21.30;1.00;;;;;;7367661;19;20010;-62
2022/05/31 10:18:54;;;;;;;3.00;2.05;;;21.60;1.00;;;;;;7370372;19;20013;-62
2022/05/31 10:21:36;;;;;;;4.28;2.10;;;20.80;1.00;;;;;;7370716;19;20520;-62
2022/05/31 10:24:19;;;;;;;5.28;1.90;;;21.20;1.00;;;;;;7382859;19;20087;-63
2022/05/31 10:27:07;;;;;;;2.92;1.80;;;21.10;1.00;;;;;;7367100;19;20116;-61
2022/05/31 10:29:49;;;;;;;3.85;1.60;;;21.80;1.00;;;;;;7369154;19;20038;-62
2022/05/31 10:32:30;;;;;;;2.67;2.20;;;21.70;1.00;;;;;;7367368;19;20007;-63
2022/05/31 10:35:17;;;;;;;5.03;1.90;;;21.00;1.00;;;;;;7365000;19;20009;-62
2022/05/31 10:37:57;;;;;;;5.00;2.15;;;21.10;1.00;;;;;;7368481;19;20021;-62
2022/05/31 10:40:33;;;;;;;3.85;1.92;;;21.00;1.00;;;;;;7370879;19;20371;-62
2022/05/31 10:43:14;;;;;;;5.88;2.10;;;21.20;1.00;;;;;;7363249;19;20014;-61
2022/05/31 10:45:46;;;;;;;4.57;1.67;;;20.90;1.00;;;;;;7366702;19;20017;-62
2022/05/31 10:48:16;;;;;;;3.20;2.08;;;21.20;1.00;;;;;;7391459;19;20035;-61
2022/05/31 10:50:55;;;;;;;2.70;1.70;;;20.50;1.00;;;;;;7368864;19;20010;-61
2022/05/31 10:53:35;;;;;;;2.97;1.83;;;21.00;1.00;;;;;;7360926;19;20053;-61
2022/05/31 10:56:15;;;;;;;2.80;1.80;;;21.40;1.00;;;;;;7364741;19;20014;-62
2022/05/31 10:58:54;;;;;;;6.68;1.70;;;21.70;1.00;;;;;;7369582;19;20429;-63
2022/05/31 11:01:40;;;;;;;3.65;1.50;;;21.20;1.00;;;;;;7369501;19;20082;-63
2022/05/31 11:04:28;;;;;;;10.13;1.80;;;21.60;1.00;;;;;;7359780;19;20057;-63
2022/05/31 11:07:07;;;;;;;4.90;1.90;;;21.40;1.00;;;;;;7367277;19;20017;-61
2022/05/31 11:12:56;;;;;;;2.72;1.40;;;22.00;1.00;;;;;;7362065;19;20003;-62
2022/05/31 11:15:44;;;;;;;5.03;1.58;;;21.40;1.00;;;;;;7364288;19;20045;-62
2022/05/31 11:18:43;;;;;;;3.67;1.60;;;21.80;1.00;;;;;;7390962;19;20066;-62
2022/05/31 11:21:28;;;;;;;3.45;1.30;;;21.50;1.00;;;;;;7368967;19;20006;-63
2022/05/31 11:24:16;;;;;;;3.15;1.40;;;21.60;1.00;;;;;;7357046;19;20494;-63
2022/05/31 11:27:05;;;;;;;2.35;1.25;;;21.50;1.00;;;;;;7365759;19;20021;-62
2022/05/31 11:30:00;;;;;;;5.88;1.55;;;21.20;1.00;;;;;;7366673;19;20014;-64
2022/05/31 11:32:43;;;;;;;2.78;1.40;;;21.30;1.00;;;;;;7362049;19;20035;-63
2022/05/31 11:35:25;;;;;;;1.45;1.13;;;21.20;1.00;;;;;;7363197;19;20086;-62
2022/05/31 11:38:04;;;;;;;2.00;1.30;;;21.60;1.00;;;;;;7367024;19;20101;-62
2022/05/31 11:40:54;;;;;;;1.67;1.30;;;21.10;1.00;;;;;;7368418;19;20035;-62
2022/05/31 11:43:51;;;;;;;3.58;1.40;;;21.40;1.00;;;;;;7361658;19;20066;-64
2022/05/31 11:46:28;;;;;;;1.42;1.13;;;21.70;1.00;;;;;;7365108;19;20011;-62
2022/05/31 11:49:03;;;;;;;1.65;1.13;;;21.40;1.00;;;;;;7367712;19;20017;-62
2022/05/31 11:51:59;;;;;;;2.50;1.40;;;21.40;1.00;;;;;;7364657;19;20010;-62
2022/05/31 11:55:25;;;;;;;3.28;1.33;;;22.00;1.00;;;;;;7357520;19;20014;-64
2022/05/31 11:57:54;;;;;;;1.83;1.05;;;23.00;1.00;;;;;;7365201;19;20130;-63
2022/05/31 12:00:36;;;;;;;3.10;1.10;;;22.40;1.00;;;;;;7365893;19;20011;-63
2022/05/31 12:03:14;;;;;;;1.92;1.17;;;21.80;1.00;;;;;;7377621;19;20035;-62
2022/05/31 12:05:50;;;;;;;4.80;1.40;;;21.60;1.00;;;;;;7363241;19;20036;-62
2022/05/31 12:08:24;;;;;;;2.20;1.10;;;21.80;1.00;;;;;;7367152;19;20024;-62
2022/05/31 12:10:57;;;;;;;3.25;1.20;;;21.50;1.00;;;;;;7367304;19;20462;-62
2022/05/31 12:13:28;;;;;;;4.25;1.05;;;22.10;1.00;;;;;;7358310;19;20070;-62
2022/05/31 12:16:00;;;;;;;1.85;1.05;;;21.60;1.00;;;;;;7363465;19;20011;-63
2022/05/31 12:18:39;;;;;;;1.58;1.08;;;21.60;1.00;;;;;;7365033;19;20007;-63
2022/05/31 12:21:17;;;;;;;1.27;1.00;;;21.60;1.00;;;;;;7384320;19;20107;-62
2022/05/31 12:23:57;;;;;;;2.95;1.23;;;22.10;1.00;;;;;;7354567;19;20305;-62
2022/05/31 12:26:33;;;;;;;2.85;1.20;;;22.20;1.00;;;;;;7361844;19;20048;-63
2022/05/31 12:29:14;;;;;;;1.98;1.13;;;21.70;1.00;;;;;;7363723;19;20022;-63
2022/05/31 12:31:47;;;;;;;6.85;1.27;;;21.80;1.00;;;;;;7362978;19;20007;-62
2022/05/31 12:34:43;;;;;;;3.83;1.27;;;22.10;1.00;;;;;;7356460;19;20082;-63
2022/05/31 12:37:15;;;;;;;4.30;1.25;;;22.10;1.00;;;;;;7362667;19;20062;-63
2022/05/31 12:39:46;;;;;;;2.85;1.13;;;22.00;1.00;;;;;;7364834;19;20014;-62
2022/05/31 12:42:39;;;;;;;2.95;1.40;;;22.10;1.00;;;;;;7383178;19;20018;-63
2022/05/31 12:45:25;;;;;;;2.22;1.20;;;22.50;1.00;;;;;;7358879;19;20506;-63
2022/05/31 12:48:02;;;;;;;1.52;1.10;;;21.70;1.00;;;;;;7365048;19;20014;-63
2022/05/31 12:51:20;;;;;;;4.03;1.05;;;21.80;1.00;;;;;;7363512;19;20359;-63
2022/05/31 12:54:03;;;;;;;4.38;1.30;;;21.90;1.00;;;;;;7356677;19;20015;-63
2022/05/31 12:56:41;;;;;;;3.85;1.50;;;21.60;1.00;;;;;;7361008;19;20123;-64
2022/05/31 12:59:11;;;;;;;4.80;1.42;;;21.60;1.00;;;;;;7363009;19;20046;-62
2022/05/31 13:02:03;;;;;;;2.17;1.35;;;21.20;1.00;;;;;;7364315;19;20131;-63
2022/05/31 13:04:36;;;;;;;4.88;1.20;;;21.80;1.00;;;;;;7356161;19;20076;-63
2022/05/31 13:07:11;;;;;;;1.85;1.20;;;22.10;1.00;;;;;;7362260;19;20078;-63
2022/05/31 13:09:44;;;;;;;6.65;1.20;;;22.00;1.00;;;;;;7363156;19;20018;-63
2022/05/31 13:20:47;;;;;;;6.25;1.13;;;22.30;1.00;;;;;;7363256;19;20018;-64
2022/05/31 13:23:20;;;;;;;6.65;1.13;;;22.00;1.00;;;;;;7356106;19;20062;-63
2022/05/31 13:25:54;;;;;;;5.53;1.30;;;22.00;1.00;;;;;;7359042;19;20025;-63
2022/05/31 13:28:29;;;;;;;2.40;1.30;;;22.40;1.00;;;;;;7362874;19;20006;-62
2022/05/31 13:31:01;;;;;;;2.70;1.20;;;21.40;1.00;;;;;;7363412;19;20274;-62
2022/05/31 13:33:32;;;;;;;2.35;1.20;;;21.40;1.00;;;;;;7355552;19;20852;-63
2022/05/31 13:36:13;;;;;;;2.88;1.15;;;21.40;1.00;;;;;;7385607;19;20021;-62
2022/05/31 13:38:46;;;;;;;3.63;1.20;;;22.10;1.00;;;;;;7369097;19;20011;-62
2022/05/31 13:41:18;;;;;;;3.10;1.38;;;21.80;1.00;;;;;;7369486;19;20078;-63
2022/05/31 13:43:54;;;;;;;2.85;1.17;;;22.10;1.00;;;;;;7362200;19;20010;-62
2022/05/31 13:46:28;;;;;;;2.00;1.38;;;21.80;1.00;;;;;;7367191;19;20022;-63
2022/05/31 13:49:05;;;;;;;3.15;1.17;;;21.80;1.00;;;;;;7367190;19;20032;-63
2022/05/31 13:51:38;;;;;;;2.78;1.30;;;22.00;1.00;;;;;;7369968;19;20613;-63
2022/05/31 13:54:14;;;;;;;5.25;1.45;;;21.80;1.00;;;;;;7383052;19;20487;-63
2022/05/31 13:56:46;;;;;;;4.78;1.98;;;21.80;1.00;;;;;;7365635;19;20011;-63
2022/05/31 13:59:31;;;;;;;2.90;1.30;;;22.10;1.00;;;;;;7370406;19;20494;-63
2022/05/31 14:02:01;;;;;;;;;;;22.50;1.00;;;;;;7367415;19;20070;-63
2022/05/31 14:04:36;;;;;;;3.58;1.42;;;22.10;1.00;;;;;;7361632;19;19910;-63
2022/05/31 14:07:13;;;;;;;;;;;21.80;1.00;;;;;;7368363;19;20018;-64
2022/05/31 14:09:49;;;;;;;2.20;1.27;;;21.70;1.00;;;;;;7370040;19;19970;-64
2022/05/31 14:12:21;;;;;;;6.70;1.40;;;21.60;1.00;;;;;;7380244;19;20659;-65